APL Denmark — A8JX9 — position and weather

sailwx.info

Track history (hours):
 
Tides and Currents Weather Stations Pressure Air Temp Water Temp Dewpoint Dewpoint Depression Visibility Wind Speed Wind Dir Waves Ship Positions

APL Denmark

Last reported at 2015-Aug-03 03:00 UTC. Time now 2015-Aug-03 06:36 UTC.
Position N 21°36' W 085°00'.

Length 277 m; beam 40 m; draft 14 m.

Type: Cargo ship. MMSI: 636091157.

Wind from 070 at 12 knots

Waves 0.5 meters (2 feet)

Barometer 1013.5 mb
Air temperature 30.0 ° C
Visibility: greater than 10.8 NM
Dewpoint 25.8 ° C
Water temperature 32.0 ° C

Date/timePositionNaut miles runAvg speedWind from/ knotsBaromVisibWave heightAir tempDewpointWater temp
2015-Aug-03 03:00N 21°36' W 085°00'56814.8 070 / 121013.510.8 0.530.025.832.0
2015-Aug-01 12:31N 29°56' W 089°59'7 0.8
2015-Aug-01 04:24N 29°55' W 090°07'0 0.0
2015-Aug-01 00:12N 29°55' W 090°07'1 0.1
2015-Jul-31 15:33N 29°55' W 090°06'6 6.6
2015-Jul-31 14:33N 29°56' W 089°58'210 7.7
2015-Jul-30 11:21N 28°47' W 093°46'1417.0
2015-Jul-30 10:33N 28°54' W 093°59'1717.2
2015-Jul-30 09:33N 29°04' W 094°15'1716.6
2015-Jul-30 08:33N 29°13' W 094°31'1413.2
2015-Jul-30 07:29N 29°21' W 094°45'1112.1
2015-Jul-30 06:33N 29°30' W 094°52'1212.0
2015-Jul-30 05:33N 29°41' W 094°59'1 1.4
2015-Jul-30 04:31N 29°41' W 095°00'0 0.0
2015-Jul-30 03:31N 29°41' W 095°00'0 0.0
2015-Jul-30 02:31N 29°41' W 095°00'0 0.0
2015-Jul-30 01:31N 29°41' W 095°00'0 0.0
2015-Jul-30 00:31N 29°41' W 095°00'0 0.0
2015-Jul-29 23:31N 29°41' W 095°00'0 0.0
2015-Jul-29 22:31N 29°41' W 095°00'0 0.0
2015-Jul-29 21:31N 29°41' W 095°00'0 0.0
2015-Jul-29 20:31N 29°41' W 095°00'0 0.0
2015-Jul-29 19:31N 29°41' W 095°00'0 0.0
2015-Jul-29 18:31N 29°41' W 095°00'0 0.0
2015-Jul-29 17:25N 29°41' W 095°00'0 0.0
2015-Jul-29 16:25N 29°41' W 095°00'0 0.0
2015-Jul-29 15:19N 29°41' W 095°00'0 0.0
2015-Jul-29 14:31N 29°41' W 095°00'0 0.2
2015-Jul-29 13:31N 29°41' W 095°00'0 0.0
2015-Jul-29 12:19N 29°41' W 095°00'0 0.0
2015-Jul-29 11:31N 29°41' W 095°00'0 0.0
2015-Jul-29 10:31N 29°41' W 095°00'0 0.0
2015-Jul-29 09:31N 29°41' W 095°00'0 0.0
2015-Jul-29 08:31N 29°41' W 095°00'0 0.0
2015-Jul-29 07:31N 29°41' W 095°00'0 0.0
2015-Jul-29 06:25N 29°41' W 095°00'0 0.0
2015-Jul-29 05:31N 29°41' W 095°00'0 0.0
2015-Jul-29 04:31N 29°41' W 095°00'0 0.0
2015-Jul-29 03:31N 29°41' W 095°00'0 0.0
2015-Jul-29 02:31N 29°41' W 095°00'0 0.0
2015-Jul-29 01:31N 29°41' W 095°00'0 0.0
2015-Jul-29 00:31N 29°41' W 095°00'0 0.0
2015-Jul-28 23:31N 29°41' W 095°00'0 0.0
2015-Jul-28 22:31N 29°41' W 095°00'0 0.0
2015-Jul-28 21:25N 29°41' W 095°00'0 0.0
2015-Jul-28 20:19N 29°41' W 095°00'0 0.0
2015-Jul-28 19:31N 29°41' W 095°00'0 0.0
2015-Jul-28 18:31N 29°41' W 095°00'0 0.0
2015-Jul-28 17:31N 29°41' W 095°00'0 0.0
2015-Jul-28 16:31N 29°41' W 095°00'0 0.0
2015-Jul-28 15:31N 29°41' W 095°00'0 0.0
2015-Jul-28 14:31N 29°41' W 095°00'0 0.0
2015-Jul-28 13:31N 29°41' W 095°00'0 0.0
2015-Jul-28 12:31N 29°41' W 095°00'0 0.0
2015-Jul-28 11:31N 29°41' W 095°00'0 0.0
2015-Jul-28 10:25N 29°41' W 095°00'0 0.0
2015-Jul-28 09:31N 29°41' W 095°00'0 0.0
2015-Jul-28 08:31N 29°41' W 095°00'0 0.0
2015-Jul-28 07:31N 29°41' W 095°00'0 0.0
2015-Jul-28 06:31N 29°41' W 095°00'0 0.0
2015-Jul-28 05:31N 29°41' W 095°00'0 0.0
2015-Jul-28 04:31N 29°41' W 095°00'0 0.0
2015-Jul-28 03:25N 29°41' W 095°00'0 0.0
2015-Jul-28 02:31N 29°41' W 095°00'0 0.0
2015-Jul-28 01:31N 29°41' W 095°00'0 0.0
2015-Jul-28 00:31N 29°41' W 095°00'0 0.0
2015-Jul-27 23:31N 29°41' W 095°00'0 0.0
2015-Jul-27 22:31N 29°41' W 095°00'0 0.0
2015-Jul-27 21:25N 29°41' W 095°00'0 0.0
2015-Jul-27 20:31N 29°41' W 095°00'0 0.0
2015-Jul-27 19:31N 29°41' W 095°00'0 0.5
2015-Jul-27 18:34N 29°41' W 094°60'8 8.1
2015-Jul-27 17:33N 29°34' W 094°55'1313.2
2015-Jul-27 16:33N 29°22' W 094°48'  
Track history (hours):
 
Tides and Currents Weather Stations Pressure Air Temp Water Temp Dewpoint Dewpoint Depression Visibility Wind Speed Wind Dir Waves Ship Positions

APL Denmark

Last reported at 2015-Aug-03 03:00 UTC. Time now 2015-Aug-03 06:36 UTC.
Position N 21°36' W 085°00'.

Length 277 m; beam 40 m; draft 14 m.

Type: Cargo ship. MMSI: 636091157.

Wind from 070 at 12 knots

Waves 0.5 meters (2 feet)

Barometer 1013.5 mb
Air temperature 30.0 ° C
Visibility: greater than 10.8 NM
Dewpoint 25.8 ° C
Water temperature 32.0 ° C

Date/timePositionNaut miles runAvg speedWind from/ knotsBaromVisibWave heightAir tempDewpointWater temp
2015-Aug-03 03:00N 21°36' W 085°00'56814.8 070 / 121013.510.8 0.530.025.832.0
2015-Aug-01 12:31N 29°56' W 089°59'7 0.8
2015-Aug-01 04:24N 29°55' W 090°07'0 0.0
2015-Aug-01 00:12N 29°55' W 090°07'1 0.1
2015-Jul-31 15:33N 29°55' W 090°06'6 6.6
2015-Jul-31 14:33N 29°56' W 089°58'210 7.7
2015-Jul-30 11:21N 28°47' W 093°46'1417.0
2015-Jul-30 10:33N 28°54' W 093°59'1717.2
2015-Jul-30 09:33N 29°04' W 094°15'1716.6
2015-Jul-30 08:33N 29°13' W 094°31'1413.2
2015-Jul-30 07:29N 29°21' W 094°45'1112.1
2015-Jul-30 06:33N 29°30' W 094°52'1212.0
2015-Jul-30 05:33N 29°41' W 094°59'1 1.4
2015-Jul-30 04:31N 29°41' W 095°00'0 0.0
2015-Jul-30 03:31N 29°41' W 095°00'0 0.0
2015-Jul-30 02:31N 29°41' W 095°00'0 0.0
2015-Jul-30 01:31N 29°41' W 095°00'0 0.0
2015-Jul-30 00:31N 29°41' W 095°00'0 0.0
2015-Jul-29 23:31N 29°41' W 095°00'0 0.0
2015-Jul-29 22:31N 29°41' W 095°00'0 0.0
2015-Jul-29 21:31N 29°41' W 095°00'0 0.0
2015-Jul-29 20:31N 29°41' W 095°00'0 0.0
2015-Jul-29 19:31N 29°41' W 095°00'0 0.0
2015-Jul-29 18:31N 29°41' W 095°00'0 0.0
2015-Jul-29 17:25N 29°41' W 095°00'0 0.0
2015-Jul-29 16:25N 29°41' W 095°00'0 0.0
2015-Jul-29 15:19N 29°41' W 095°00'0 0.0
2015-Jul-29 14:31N 29°41' W 095°00'0 0.2
2015-Jul-29 13:31N 29°41' W 095°00'0 0.0
2015-Jul-29 12:19N 29°41' W 095°00'0 0.0
2015-Jul-29 11:31N 29°41' W 095°00'0 0.0
2015-Jul-29 10:31N 29°41' W 095°00'0 0.0
2015-Jul-29 09:31N 29°41' W 095°00'0 0.0
2015-Jul-29 08:31N 29°41' W 095°00'0 0.0
2015-Jul-29 07:31N 29°41' W 095°00'0 0.0
2015-Jul-29 06:25N 29°41' W 095°00'0 0.0
2015-Jul-29 05:31N 29°41' W 095°00'0 0.0
2015-Jul-29 04:31N 29°41' W 095°00'0 0.0
2015-Jul-29 03:31N 29°41' W 095°00'0 0.0
2015-Jul-29 02:31N 29°41' W 095°00'0 0.0
2015-Jul-29 01:31N 29°41' W 095°00'0 0.0
2015-Jul-29 00:31N 29°41' W 095°00'0 0.0
2015-Jul-28 23:31N 29°41' W 095°00'0 0.0
2015-Jul-28 22:31N 29°41' W 095°00'0 0.0
2015-Jul-28 21:25N 29°41' W 095°00'0 0.0
2015-Jul-28 20:19N 29°41' W 095°00'0 0.0
2015-Jul-28 19:31N 29°41' W 095°00'0 0.0
2015-Jul-28 18:31N 29°41' W 095°00'0 0.0
2015-Jul-28 17:31N 29°41' W 095°00'0 0.0
2015-Jul-28 16:31N 29°41' W 095°00'0 0.0
2015-Jul-28 15:31N 29°41' W 095°00'0 0.0
2015-Jul-28 14:31N 29°41' W 095°00'0 0.0
2015-Jul-28 13:31N 29°41' W 095°00'0 0.0
2015-Jul-28 12:31N 29°41' W 095°00'0 0.0
2015-Jul-28 11:31N 29°41' W 095°00'0 0.0
2015-Jul-28 10:25N 29°41' W 095°00'0 0.0
2015-Jul-28 09:31N 29°41' W 095°00'0 0.0
2015-Jul-28 08:31N 29°41' W 095°00'0 0.0
2015-Jul-28 07:31N 29°41' W 095°00'0 0.0
2015-Jul-28 06:31N 29°41' W 095°00'0 0.0
2015-Jul-28 05:31N 29°41' W 095°00'0 0.0
2015-Jul-28 04:31N 29°41' W 095°00'0 0.0
2015-Jul-28 03:25N 29°41' W 095°00'0 0.0
2015-Jul-28 02:31N 29°41' W 095°00'0 0.0
2015-Jul-28 01:31N 29°41' W 095°00'0 0.0
2015-Jul-28 00:31N 29°41' W 095°00'0 0.0
2015-Jul-27 23:31N 29°41' W 095°00'0 0.0
2015-Jul-27 22:31N 29°41' W 095°00'0 0.0
2015-Jul-27 21:25N 29°41' W 095°00'0 0.0
2015-Jul-27 20:31N 29°41' W 095°00'0 0.0
2015-Jul-27 19:31N 29°41' W 095°00'0 0.5
2015-Jul-27 18:34N 29°41' W 094°60'8 8.1
2015-Jul-27 17:33N 29°34' W 094°55'1313.2
2015-Jul-27 16:33N 29°22' W 094°48'  

Dump ship's entire track history